Time;durP1;ratioP1;P1;durP2;ratioP2;P2;SDS_P1;SDS_P2;PMS_P1;PMS_P2;Temp;Humidity;BMP_temperature;BMP_pressure;BME280_temperature;BME280_humidity;BME280_pressure;Samples;Min_cycle;Max_cycle;Signal;HPM_P1;HPM_P2
2021/12/08 00:00:34;;;;;;;45.42;20.92;;;;;;;;;;4998899;28;20022;-80
2021/12/08 00:08:11;;;;;;;65.20;32.85;;;;;;;;;;5374394;23;20058;-80
2021/12/08 00:11:03;;;;;;;62.35;32.80;;;;;;;;;;4999016;28;20084;-81
2021/12/08 00:13:29;;;;;;;77.22;37.10;;;;;;;;;;4998944;28;20046;-80
2021/12/08 00:15:56;;;;;;;72.95;34.90;;;;;;;;;;4998679;28;20451;-81
2021/12/08 00:18:26;;;;;;;72.22;37.53;;;;;;;;;;4997383;28;20382;-81
2021/12/08 00:20:54;;;;;;;69.43;36.33;;;;;;;;;;4999005;28;20060;-80
2021/12/08 00:23:21;;;;;;;68.43;34.85;;;;;;;;;;4998902;28;20030;-81
2021/12/08 00:25:47;;;;;;;81.55;40.40;;;;;;;;;;4999163;28;20022;-80
2021/12/08 00:28:14;;;;;;;90.07;46.92;;;;;;;;;;4907934;23;2810866;-80
2021/12/08 00:30:42;;;;;;;88.43;41.47;;;;;;;;;;4998709;28;20022;-80
2021/12/08 00:33:08;;;;;;;77.30;41.08;;;;;;;;;;4980985;28;20029;-81
2021/12/08 00:35:34;;;;;;;87.10;42.50;;;;;;;;;;4999206;28;20360;-81
2021/12/08 00:38:01;;;;;;;83.38;44.30;;;;;;;;;;4982069;28;20018;-80
2021/12/08 00:40:28;;;;;;;80.35;42.53;;;;;;;;;;4997835;28;20025;-80
2021/12/08 00:42:54;;;;;;;75.35;42.53;;;;;;;;;;4999672;28;20038;-81
2021/12/08 00:45:21;;;;;;;78.35;39.33;;;;;;;;;;4999682;28;20077;-81
2021/12/08 00:47:48;;;;;;;91.93;38.20;;;;;;;;;;4999084;28;20073;-81
2021/12/08 00:50:14;;;;;;;71.65;37.05;;;;;;;;;;4997709;28;20026;-80
2021/12/08 00:52:40;;;;;;;86.75;40.70;;;;;;;;;;5000146;28;20336;-81
2021/12/08 00:55:07;;;;;;;72.38;41.67;;;;;;;;;;4997735;28;20037;-80
2021/12/08 00:57:34;;;;;;;75.65;40.17;;;;;;;;;;4998448;28;20444;-81
2021/12/08 01:00:03;;;;;;;77.82;40.80;;;;;;;;;;4997938;28;20037;-81
2021/12/08 01:02:29;;;;;;;89.70;47.28;;;;;;;;;;4999100;28;20069;-81
2021/12/08 01:04:55;;;;;;;91.05;49.75;;;;;;;;;;4998835;28;20025;-81
2021/12/08 01:07:21;;;;;;;124.38;64.45;;;;;;;;;;4998443;28;20108;-81
2021/12/08 01:09:47;;;;;;;302.30;167.65;;;;;;;;;;4997433;28;20104;-81
2021/12/08 01:12:13;;;;;;;282.50;160.35;;;;;;;;;;4998999;28;20325;-81
2021/12/08 01:14:39;;;;;;;275.25;150.95;;;;;;;;;;4999571;28;20026;-80
2021/12/08 01:17:06;;;;;;;267.85;146.82;;;;;;;;;;4999277;28;20118;-80
2021/12/08 01:19:32;;;;;;;203.93;106.68;;;;;;;;;;4998888;28;20023;-80
2021/12/08 01:21:58;;;;;;;147.70;83.18;;;;;;;;;;5001872;28;20029;-80
2021/12/08 01:24:24;;;;;;;120.68;64.55;;;;;;;;;;5002571;28;20031;-81
2021/12/08 01:26:51;;;;;;;141.80;70.97;;;;;;;;;;5005128;28;20019;-80
2021/12/08 01:29:17;;;;;;;115.10;54.30;;;;;;;;;;5004106;28;20038;-81
2021/12/08 01:31:46;;;;;;;85.97;44.78;;;;;;;;;;5009953;28;20022;-80
2021/12/08 01:34:18;;;;;;;87.68;43.22;;;;;;;;;;5010144;28;20057;-80
2021/12/08 01:36:45;;;;;;;81.75;42.47;;;;;;;;;;5003545;28;20394;-80
2021/12/08 01:39:11;;;;;;;101.35;53.63;;;;;;;;;;4996182;28;20038;-81
2021/12/08 01:41:39;;;;;;;120.38;64.65;;;;;;;;;;5011672;28;20022;-81
2021/12/08 01:46:39;;;;;;;88.13;44.53;;;;;;;;;;5159120;23;20042;-78
2021/12/08 01:54:47;;;;;;;60.80;31.33;;;;;;;;;;6010030;23;20111;-82
2021/12/08 01:57:13;;;;;;;71.20;35.80;;;;;;;;;;5009628;28;20128;-80
2021/12/08 01:59:39;;;;;;;63.17;32.47;;;;;;;;;;5007661;28;20026;-80
2021/12/08 02:02:05;;;;;;;67.72;28.35;;;;;;;;;;5011293;28;20038;-81
2021/12/08 02:04:31;;;;;;;78.28;35.25;;;;;;;;;;4995721;28;20034;-81
2021/12/08 02:09:33;;;;;;;83.35;28.55;;;;;;;;;;5011404;28;20046;-81
2021/12/08 02:11:59;;;;;;;74.43;31.15;;;;;;;;;;5015293;28;20035;-80
2021/12/08 02:14:25;;;;;;;71.10;32.10;;;;;;;;;;5058185;23;20054;-78
2021/12/08 02:19:25;;;;;;;108.28;36.28;;;;;;;;;;5465140;23;20046;-80
2021/12/08 02:21:54;;;;;;;103.07;41.35;;;;;;;;;;5010503;28;20038;-80
2021/12/08 02:24:21;;;;;;;88.18;37.63;;;;;;;;;;5013040;28;20030;-81
2021/12/08 02:26:51;;;;;;;95.47;46.13;;;;;;;;;;5011656;28;20081;-80
2021/12/08 02:29:22;;;;;;;107.20;48.40;;;;;;;;;;5368070;23;20054;-80
2021/12/08 02:32:27;;;;;;;115.13;49.10;;;;;;;;;;5009590;28;20026;-80
2021/12/08 02:48:06;;;;;;;85.03;35.60;;;;;;;;;;5318943;23;20070;-78
2021/12/08 02:51:06;;;;;;;129.45;54.53;;;;;;;;;;5131829;23;20057;-80
2021/12/08 02:53:35;;;;;;;121.22;57.30;;;;;;;;;;5007340;28;20121;-81
2021/12/08 02:56:01;;;;;;;105.95;57.67;;;;;;;;;;5199706;23;20042;-81
2021/12/08 02:58:27;;;;;;;125.57;58.30;;;;;;;;;;5009338;23;20053;-81
2021/12/08 03:03:22;;;;;;;131.25;68.72;;;;;;;;;;5020549;23;20054;-80
2021/12/08 03:05:48;;;;;;;133.65;67.47;;;;;;;;;;5004360;23;20129;-77
2021/12/08 03:08:15;;;;;;;127.35;67.63;;;;;;;;;;5038158;23;20310;-80
2021/12/08 03:10:45;;;;;;;116.00;61.25;;;;;;;;;;4972658;28;20011;-80
2021/12/08 03:13:15;;;;;;;104.05;57.00;;;;;;;;;;5005334;28;20071;-80
2021/12/08 03:15:49;;;;;;;112.70;55.28;;;;;;;;;;4986707;28;20041;-80
2021/12/08 03:18:31;;;;;;;102.20;51.00;;;;;;;;;;4990055;28;20018;-80
2021/12/08 03:20:58;;;;;;;98.78;50.45;;;;;;;;;;4989306;28;20034;-80
2021/12/08 03:23:31;;;;;;;111.05;50.45;;;;;;;;;;4985240;28;20038;-81
2021/12/08 03:26:00;;;;;;;96.82;51.15;;;;;;;;;;5003843;28;20019;-80
2021/12/08 03:28:31;;;;;;;109.03;53.53;;;;;;;;;;5253631;23;20054;-79
2021/12/08 03:33:26;;;;;;;97.55;45.38;;;;;;;;;;5003938;28;20022;-80
2021/12/08 03:35:52;;;;;;;85.90;36.40;;;;;;;;;;5021590;23;20038;-80
2021/12/08 03:40:50;;;;;;;98.70;47.95;;;;;;;;;;5111358;23;20050;-78
2021/12/08 03:43:16;;;;;;;81.70;43.97;;;;;;;;;;5092521;23;20050;-79
2021/12/08 03:45:46;;;;;;;163.35;86.13;;;;;;;;;;4999991;28;20019;-79
2021/12/08 03:48:15;;;;;;;177.68;86.03;;;;;;;;;;4999512;28;20339;-80
2021/12/08 03:53:16;;;;;;;140.70;68.25;;;;;;;;;;5094451;23;20273;-80
2021/12/08 03:55:43;;;;;;;130.32;65.90;;;;;;;;;;4985547;28;20071;-79
2021/12/08 04:00:53;;;;;;;129.43;57.28;;;;;;;;;;5065025;23;20397;-80
2021/12/08 04:03:23;;;;;;;116.75;50.47;;;;;;;;;;5015357;23;20398;-80
2021/12/08 04:08:42;;;;;;;112.65;51.30;;;;;;;;;;5005859;23;20050;-79
2021/12/08 04:11:14;;;;;;;109.20;50.85;;;;;;;;;;4981262;28;20129;-80
2021/12/08 04:13:53;;;;;;;112.07;53.38;;;;;;;;;;4982612;28;20116;-79
2021/12/08 04:16:29;;;;;;;86.00;43.45;;;;;;;;;;5004465;28;20082;-81
2021/12/08 04:18:58;;;;;;;77.85;33.65;;;;;;;;;;5006642;28;20148;-80
2021/12/08 04:21:30;;;;;;;56.03;28.02;;;;;;;;;;5032240;23;20146;-81
2021/12/08 04:23:57;;;;;;;54.17;25.48;;;;;;;;;;5000303;28;20112;-81
2021/12/08 04:26:27;;;;;;;49.35;23.98;;;;;;;;;;5002910;28;20014;-81
2021/12/08 04:28:56;;;;;;;60.90;26.65;;;;;;;;;;5062146;23;20086;-77
2021/12/08 04:31:28;;;;;;;45.97;21.58;;;;;;;;;;5112414;23;20551;-75
2021/12/08 04:33:59;;;;;;;46.35;21.30;;;;;;;;;;5047952;23;20345;-77
2021/12/08 04:36:24;;;;;;;51.17;25.55;;;;;;;;;;5166581;23;20038;-80
2021/12/08 04:38:57;;;;;;;66.35;25.38;;;;;;;;;;5000610;28;20044;-81
2021/12/08 04:44:10;;;;;;;46.78;19.27;;;;;;;;;;4955092;23;20073;-78
2021/12/08 04:47:17;;;;;;;52.50;19.98;;;;;;;;;;5059030;23;20050;-82
2021/12/08 05:05:48;;;;;;;62.42;23.30;;;;;;;;;;4491624;23;20066;-79
2021/12/08 05:08:14;;;;;;;55.83;21.83;;;;;;;;;;5513293;23;20057;-81
2021/12/08 05:10:41;;;;;;;54.45;22.60;;;;;;;;;;5002494;28;20484;-82
2021/12/08 05:13:09;;;;;;;72.63;26.80;;;;;;;;;;4986942;28;20027;-82
2021/12/08 05:15:42;;;;;;;56.20;25.05;;;;;;;;;;5037887;23;20043;-77
2021/12/08 05:28:18;;;;;;;58.22;26.05;;;;;;;;;;4998827;28;20415;-77
2021/12/08 05:33:16;;;;;;;55.80;26.73;;;;;;;;;;5138621;23;20038;-81
2021/12/08 05:35:45;;;;;;;64.53;31.05;;;;;;;;;;5013789;28;20049;-82
2021/12/08 05:45:43;;;;;;;56.70;26.45;;;;;;;;;;5026689;23;20034;-81
2021/12/08 05:48:11;;;;;;;55.70;21.50;;;;;;;;;;5006890;28;20116;-82
2021/12/08 05:50:44;;;;;;;34.85;14.68;;;;;;;;;;5388242;23;20056;-82
2021/12/08 05:53:10;;;;;;;47.75;17.92;;;;;;;;;;5006843;28;20022;-83
2021/12/08 05:55:42;;;;;;;53.20;23.33;;;;;;;;;;5007629;28;20021;-81
2021/12/08 05:58:09;;;;;;;61.85;28.77;;;;;;;;;;5006300;28;20023;-82
2021/12/08 06:00:38;;;;;;;83.47;37.45;;;;;;;;;;5001983;28;20092;-80
2021/12/08 06:03:04;;;;;;;80.30;32.83;;;;;;;;;;4985854;28;20038;-81
2021/12/08 06:05:31;;;;;;;103.97;43.55;;;;;;;;;;5047464;23;20126;-76
2021/12/08 06:07:57;;;;;;;92.00;41.72;;;;;;;;;;4998508;28;20097;-77
2021/12/08 06:10:29;;;;;;;87.30;39.05;;;;;;;;;;5011405;23;20068;-84
2021/12/08 06:12:56;;;;;;;87.13;38.50;;;;;;;;;;5066241;23;1660837;-77
2021/12/08 06:15:22;;;;;;;71.10;29.30;;;;;;;;;;5022349;23;20421;-76
2021/12/08 06:17:50;;;;;;;52.55;18.98;;;;;;;;;;5017939;23;20031;-81
2021/12/08 06:20:17;;;;;;;77.85;33.72;;;;;;;;;;5245209;23;20447;-78
2021/12/08 06:22:50;;;;;;;66.03;32.38;;;;;;;;;;4999239;28;20116;-79
2021/12/08 06:25:17;;;;;;;66.55;31.10;;;;;;;;;;5489423;23;20032;-78
2021/12/08 06:27:46;;;;;;;60.65;30.23;;;;;;;;;;5513059;23;20044;-79
2021/12/08 06:30:15;;;;;;;48.15;27.75;;;;;;;;;;5008204;23;20357;-82
2021/12/08 06:32:43;;;;;;;57.17;26.95;;;;;;;;;;4989406;23;20035;-81
2021/12/08 06:37:45;;;;;;;54.88;26.75;;;;;;;;;;5594846;23;20059;-80
2021/12/08 06:40:14;;;;;;;55.03;27.23;;;;;;;;;;5002020;28;20022;-80
2021/12/08 06:42:42;;;;;;;39.85;21.85;;;;;;;;;;5021137;23;20432;-77
2021/12/08 06:45:12;;;;;;;52.35;24.27;;;;;;;;;;5091354;23;20133;-80
2021/12/08 06:47:40;;;;;;;54.13;26.45;;;;;;;;;;5166017;23;20467;-82
2021/12/08 06:55:17;;;;;;;55.72;26.95;;;;;;;;;;5040901;23;20046;-82
2021/12/08 06:57:46;;;;;;;51.03;25.50;;;;;;;;;;5049983;23;20065;-82
2021/12/08 07:06:04;;;;;;;51.70;27.45;;;;;;;;;;4993774;28;20026;-82
2021/12/08 07:10:58;;;;;;;52.20;26.65;;;;;;;;;;4998747;28;20043;-83
2021/12/08 07:13:27;;;;;;;43.33;24.95;;;;;;;;;;4999270;28;20054;-82
2021/12/08 07:16:00;;;;;;;48.17;23.02;;;;;;;;;;5000418;28;20026;-81
2021/12/08 07:18:29;;;;;;;59.45;23.50;;;;;;;;;;4984788;28;20022;-81
2021/12/08 07:20:58;;;;;;;46.90;23.02;;;;;;;;;;4987772;23;20133;-81
2021/12/08 07:28:18;;;;;;;51.80;22.35;;;;;;;;;;5006492;23;20444;-82
2021/12/08 07:30:48;;;;;;;35.85;20.10;;;;;;;;;;5001745;28;20029;-82
2021/12/08 07:33:15;;;;;;;46.97;22.27;;;;;;;;;;5130282;23;20365;-77
2021/12/08 07:35:43;;;;;;;53.40;23.73;;;;;;;;;;4996157;28;20018;-77
2021/12/08 07:38:11;;;;;;;45.90;24.08;;;;;;;;;;5003141;23;20042;-75
2021/12/08 07:40:43;;;;;;;51.88;22.30;;;;;;;;;;4996134;28;20022;-76
2021/12/08 07:43:11;;;;;;;47.85;21.08;;;;;;;;;;4996500;28;20281;-76
2021/12/08 07:45:39;;;;;;;51.97;23.35;;;;;;;;;;4996452;28;20508;-75
2021/12/08 07:48:07;;;;;;;48.97;21.38;;;;;;;;;;4996711;28;20026;-76
2021/12/08 07:50:35;;;;;;;64.35;20.52;;;;;;;;;;4995898;28;20022;-76
2021/12/08 07:53:05;;;;;;;53.08;18.80;;;;;;;;;;4995765;28;20022;-76
2021/12/08 07:55:36;;;;;;;54.75;22.58;;;;;;;;;;4994554;28;20305;-76
2021/12/08 07:58:03;;;;;;;45.70;22.85;;;;;;;;;;4995218;28;20072;-76
2021/12/08 08:00:32;;;;;;;52.63;24.50;;;;;;;;;;4997481;28;20014;-76
2021/12/08 08:03:00;;;;;;;53.83;23.90;;;;;;;;;;4995554;28;20041;-77
2021/12/08 08:05:29;;;;;;;52.75;21.48;;;;;;;;;;4995255;28;20077;-75
2021/12/08 08:07:57;;;;;;;56.97;22.95;;;;;;;;;;4994670;28;20053;-75
2021/12/08 08:10:23;;;;;;;60.92;27.23;;;;;;;;;;4995202;28;20022;-76
2021/12/08 08:12:57;;;;;;;54.63;26.27;;;;;;;;;;4992935;28;20026;-75
2021/12/08 08:15:24;;;;;;;57.65;25.38;;;;;;;;;;4993539;28;20089;-76
2021/12/08 08:17:52;;;;;;;48.17;25.35;;;;;;;;;;4994914;28;20277;-76
2021/12/08 08:20:21;;;;;;;57.92;25.00;;;;;;;;;;4994128;28;20087;-76
2021/12/08 08:22:47;;;;;;;60.75;26.73;;;;;;;;;;4994556;28;20116;-75
2021/12/08 08:25:15;;;;;;;57.25;25.30;;;;;;;;;;4995142;28;20026;-76
2021/12/08 08:27:42;;;;;;;54.80;26.48;;;;;;;;;;4995496;28;20141;-78
2021/12/08 08:30:12;;;;;;;49.85;23.67;;;;;;;;;;4996207;28;20022;-75
2021/12/08 08:32:39;;;;;;;;;;;;;;;;;;4995184;28;20023;-75
2021/12/08 08:35:05;;;;;;;54.80;27.48;;;;;;;;;;4996823;28;20322;-74
2021/12/08 08:37:32;;;;;;;52.33;25.52;;;;;;;;;;4996358;28;20031;-78
2021/12/08 08:39:59;;;;;;;48.13;23.98;;;;;;;;;;4997104;28;20421;-77
2021/12/08 08:42:30;;;;;;;46.22;24.95;;;;;;;;;;5002813;23;20042;-81
2021/12/08 08:45:16;;;;;;;61.25;24.95;;;;;;;;;;4998552;28;20066;-82
2021/12/08 08:47:55;;;;;;;55.83;26.63;;;;;;;;;;4998377;28;20019;-81
2021/12/08 08:52:53;;;;;;;72.53;36.08;;;;;;;;;;4997909;23;20061;-79
2021/12/08 08:57:47;;;;;;;46.83;24.80;;;;;;;;;;5670402;23;20399;-81
2021/12/08 09:02:50;;;;;;;53.30;26.77;;;;;;;;;;5106567;23;20052;-81
2021/12/08 09:05:26;;;;;;;54.03;25.58;;;;;;;;;;5002114;28;20018;-81
2021/12/08 09:07:56;;;;;;;;;;;;;;;;;;4979226;28;20372;-80
2021/12/08 09:10:25;;;;;;;46.35;21.42;;;;;;;;;;4997821;28;19905;-80
2021/12/08 09:12:54;;;;;;;57.60;24.90;;;;;;;;;;4996785;28;20053;-80
2021/12/08 09:15:23;;;;;;;71.07;27.95;;;;;;;;;;4998142;28;20030;-81
2021/12/08 09:18:15;;;;;;;55.05;25.73;;;;;;;;;;4998322;28;20027;-80
2021/12/08 09:20:54;;;;;;;48.63;23.23;;;;;;;;;;4995870;28;20026;-81
2021/12/08 09:23:24;;;;;;;55.10;24.42;;;;;;;;;;4980169;28;20463;-81
2021/12/08 09:26:00;;;;;;;49.90;23.10;;;;;;;;;;4995827;28;20019;-81
2021/12/08 09:28:33;;;;;;;60.03;29.95;;;;;;;;;;4980693;28;20076;-81
2021/12/08 09:31:04;;;;;;;55.70;24.77;;;;;;;;;;4999733;28;20026;-81
2021/12/08 09:33:38;;;;;;;54.35;27.52;;;;;;;;;;5020613;23;20041;-81
2021/12/08 09:36:07;;;;;;;75.72;27.35;;;;;;;;;;4998072;28;20332;-79
2021/12/08 09:38:35;;;;;;;55.05;23.35;;;;;;;;;;4996479;28;20066;-80
2021/12/08 09:41:04;;;;;;;43.72;23.02;;;;;;;;;;4998825;28;20109;-80
2021/12/08 09:43:35;;;;;;;45.05;23.58;;;;;;;;;;4997176;28;20034;-79
2021/12/08 09:46:05;;;;;;;51.45;25.48;;;;;;;;;;4996381;28;20022;-79
2021/12/08 09:48:31;;;;;;;43.55;22.42;;;;;;;;;;4998998;28;20073;-80
2021/12/08 09:50:58;;;;;;;40.67;21.58;;;;;;;;;;5002147;28;20026;-79
2021/12/08 09:53:27;;;;;;;51.72;25.10;;;;;;;;;;5001551;28;20392;-79
2021/12/08 09:55:54;;;;;;;38.63;19.02;;;;;;;;;;5000196;28;20050;-79
2021/12/08 09:58:23;;;;;;;63.78;32.50;;;;;;;;;;5000848;28;20421;-80
2021/12/08 10:00:52;;;;;;;41.88;25.08;;;;;;;;;;4999872;28;20421;-80
2021/12/08 10:03:18;;;;;;;50.97;28.08;;;;;;;;;;5000747;28;20153;-79
2021/12/08 10:05:45;;;;;;;48.10;21.95;;;;;;;;;;5001746;28;20026;-81
2021/12/08 10:08:11;;;;;;;55.40;24.40;;;;;;;;;;5702897;23;20014;-77
2021/12/08 10:21:37;;;;;;;48.55;25.88;;;;;;;;;;5256468;23;20050;-81
2021/12/08 10:24:14;;;;;;;62.30;29.02;;;;;;;;;;5002441;28;20050;-82
2021/12/08 10:26:41;;;;;;;45.80;24.10;;;;;;;;;;4999557;28;20019;-82
2021/12/08 10:29:07;;;;;;;41.40;23.55;;;;;;;;;;5042784;23;20453;-81
2021/12/08 10:31:39;;;;;;;46.85;23.67;;;;;;;;;;5016567;23;20038;-82
2021/12/08 10:36:48;;;;;;;46.95;25.52;;;;;;;;;;5001324;28;20058;-81
2021/12/08 10:39:22;;;;;;;54.53;27.52;;;;;;;;;;4999951;28;20045;-82
2021/12/08 10:41:48;;;;;;;50.75;23.27;;;;;;;;;;5001031;28;20101;-82
2021/12/08 10:44:15;;;;;;;49.75;26.92;;;;;;;;;;4999287;28;20034;-82
2021/12/08 10:46:44;;;;;;;47.38;20.58;;;;;;;;;;5000053;28;20025;-81
2021/12/08 10:49:19;;;;;;;64.10;22.52;;;;;;;;;;4999856;28;20030;-81
2021/12/08 10:54:31;;;;;;;50.28;23.90;;;;;;;;;;5012930;23;20005;-81
2021/12/08 10:56:59;;;;;;;45.25;23.95;;;;;;;;;;5000115;28;20045;-81
2021/12/08 10:59:27;;;;;;;56.35;25.13;;;;;;;;;;4998624;28;20029;-82
2021/12/08 11:02:03;;;;;;;55.97;25.67;;;;;;;;;;4999574;28;20341;-81
2021/12/08 11:04:30;;;;;;;37.65;20.95;;;;;;;;;;4997797;28;20057;-81
2021/12/08 11:07:07;;;;;;;39.25;20.55;;;;;;;;;;4999032;28;20073;-82
2021/12/08 11:09:42;;;;;;;49.63;21.13;;;;;;;;;;4999812;28;20022;-82
2021/12/08 11:12:08;;;;;;;46.50;17.73;;;;;;;;;;5001092;28;20046;-82
2021/12/08 11:14:45;;;;;;;40.03;21.60;;;;;;;;;;5000580;28;20096;-82
2021/12/08 11:17:29;;;;;;;40.50;19.52;;;;;;;;;;5021010;23;20381;-81
2021/12/08 11:20:13;;;;;;;51.92;20.67;;;;;;;;;;5000089;28;20018;-81
2021/12/08 11:22:40;;;;;;;38.03;19.92;;;;;;;;;;5004536;23;20038;-82
2021/12/08 11:25:07;;;;;;;44.92;20.90;;;;;;;;;;5004732;23;20116;-81
2021/12/08 11:27:34;;;;;;;44.35;19.88;;;;;;;;;;5000990;28;20019;-81
2021/12/08 11:30:11;;;;;;;55.28;23.77;;;;;;;;;;5021919;23;20045;-81
2021/12/08 11:32:37;;;;;;;49.28;23.88;;;;;;;;;;4999432;28;20113;-82
2021/12/08 11:35:03;;;;;;;54.30;24.05;;;;;;;;;;5020663;23;20109;-82
2021/12/08 11:37:34;;;;;;;43.72;24.85;;;;;;;;;;4999085;28;20383;-81
2021/12/08 11:40:01;;;;;;;;;;;;;;;;;;4999990;28;20084;-82
2021/12/08 11:42:31;;;;;;;48.53;21.83;;;;;;;;;;5005086;23;20308;-82
2021/12/08 11:45:03;;;;;;;43.53;24.27;;;;;;;;;;4999243;28;20432;-81
2021/12/08 11:47:34;;;;;;;39.55;21.25;;;;;;;;;;4999584;28;20022;-81
2021/12/08 11:50:07;;;;;;;52.95;24.60;;;;;;;;;;4997966;28;20337;-81
2021/12/08 11:52:33;;;;;;;35.58;19.15;;;;;;;;;;4998904;28;20018;-81
2021/12/08 11:55:01;;;;;;;52.83;19.42;;;;;;;;;;4997587;28;20025;-81
2021/12/08 11:57:36;;;;;;;38.72;19.95;;;;;;;;;;4997852;28;20366;-81
2021/12/08 12:00:16;;;;;;;41.72;20.00;;;;;;;;;;4998176;28;20048;-82
2021/12/08 12:02:56;;;;;;;36.88;20.08;;;;;;;;;;4981161;28;20113;-81
2021/12/08 12:05:25;;;;;;;44.30;17.88;;;;;;;;;;4998798;28;20025;-81
2021/12/08 12:07:51;;;;;;;35.42;18.42;;;;;;;;;;4998941;28;20376;-82
2021/12/08 12:10:18;;;;;;;36.75;20.23;;;;;;;;;;4997105;28;20025;-81
2021/12/08 12:12:44;;;;;;;41.85;19.52;;;;;;;;;;4997058;28;20026;-81
2021/12/08 12:15:12;;;;;;;43.17;20.73;;;;;;;;;;4999012;28;20045;-81
2021/12/08 12:17:38;;;;;;;42.33;21.25;;;;;;;;;;4998181;28;20019;-81
2021/12/08 12:20:12;;;;;;;47.28;22.95;;;;;;;;;;4997088;28;20025;-81
2021/12/08 12:22:41;;;;;;;50.20;19.50;;;;;;;;;;4999959;28;20025;-81
2021/12/08 12:25:17;;;;;;;45.75;20.83;;;;;;;;;;4998855;28;20351;-81
2021/12/08 12:27:43;;;;;;;32.97;17.58;;;;;;;;;;4998039;28;20014;-81
2021/12/08 12:30:09;;;;;;;40.28;17.27;;;;;;;;;;4998577;28;20045;-81
2021/12/08 12:32:43;;;;;;;36.40;16.88;;;;;;;;;;4998290;28;20023;-81
2021/12/08 12:35:15;;;;;;;48.20;21.20;;;;;;;;;;4997079;28;20027;-81
2021/12/08 12:37:43;;;;;;;42.03;20.10;;;;;;;;;;5092475;23;20021;-80
2021/12/08 12:40:11;;;;;;;48.20;18.45;;;;;;;;;;5193149;23;20049;-81
2021/12/08 12:42:43;;;;;;;33.33;17.52;;;;;;;;;;4998439;28;20093;-81
2021/12/08 12:45:13;;;;;;;34.08;16.58;;;;;;;;;;4997906;28;20076;-81
2021/12/08 12:47:39;;;;;;;41.05;16.35;;;;;;;;;;4997365;28;20025;-80
2021/12/08 12:50:14;;;;;;;33.75;17.63;;;;;;;;;;5002978;23;20101;-80
2021/12/08 12:52:42;;;;;;;31.15;15.88;;;;;;;;;;4998291;28;20026;-80
2021/12/08 12:55:10;;;;;;;32.40;16.05;;;;;;;;;;4997891;28;20057;-80
2021/12/08 12:57:54;;;;;;;33.42;13.60;;;;;;;;;;4996883;28;20413;-80
2021/12/08 13:00:28;;;;;;;30.67;14.68;;;;;;;;;;4999003;28;20019;-80
2021/12/08 13:02:54;;;;;;;39.47;15.70;;;;;;;;;;4998227;28;20120;-80
2021/12/08 13:05:20;;;;;;;34.80;15.35;;;;;;;;;;4980870;28;20061;-81
2021/12/08 13:07:56;;;;;;;27.77;13.68;;;;;;;;;;4996925;28;20029;-80
2021/12/08 13:10:29;;;;;;;36.60;16.95;;;;;;;;;;4997576;28;20014;-81
2021/12/08 13:13:15;;;;;;;30.77;18.02;;;;;;;;;;4996869;28;20029;-80
2021/12/08 13:15:41;;;;;;;31.15;14.95;;;;;;;;;;5037557;23;20048;-80
2021/12/08 13:18:14;;;;;;;34.20;16.17;;;;;;;;;;5003824;23;20117;-81
2021/12/08 13:20:42;;;;;;;33.58;15.15;;;;;;;;;;4998150;28;20077;-81
2021/12/08 13:23:09;;;;;;;32.70;15.13;;;;;;;;;;4998472;28;20089;-81
2021/12/08 13:28:34;;;;;;;41.45;21.00;;;;;;;;;;5002832;28;20109;-81
2021/12/08 13:31:19;;;;;;;46.08;19.25;;;;;;;;;;5002108;28;20298;-80
2021/12/08 13:33:53;;;;;;;30.33;18.02;;;;;;;;;;5001656;28;20022;-81
2021/12/08 13:36:22;;;;;;;36.08;18.50;;;;;;;;;;5001191;28;20029;-80
2021/12/08 13:38:48;;;;;;;35.33;17.80;;;;;;;;;;5000758;28;20076;-80
2021/12/08 13:41:15;;;;;;;35.55;18.73;;;;;;;;;;5000173;28;20022;-80
2021/12/08 13:43:43;;;;;;;36.83;19.10;;;;;;;;;;5000677;28;20034;-80
2021/12/08 13:46:10;;;;;;;30.27;14.75;;;;;;;;;;5002393;28;20019;-80
2021/12/08 13:51:27;;;;;;;37.72;18.83;;;;;;;;;;5047931;23;20129;-80
2021/12/08 13:54:12;;;;;;;39.08;18.95;;;;;;;;;;5000858;28;20018;-80
2021/12/08 13:56:39;;;;;;;37.33;17.95;;;;;;;;;;5001612;28;20061;-80
2021/12/08 13:59:05;;;;;;;34.08;17.23;;;;;;;;;;5000214;28;20018;-80
2021/12/08 14:01:36;;;;;;;32.33;16.17;;;;;;;;;;5001044;28;20435;-80
2021/12/08 14:04:14;;;;;;;43.45;16.30;;;;;;;;;;5001227;28;20034;-80
2021/12/08 14:06:40;;;;;;;30.85;16.48;;;;;;;;;;5001404;28;20061;-80
2021/12/08 14:09:13;;;;;;;41.72;17.90;;;;;;;;;;4984231;28;20033;-80
2021/12/08 14:11:39;;;;;;;32.13;15.98;;;;;;;;;;5001087;28;20018;-80
2021/12/08 14:14:08;;;;;;;29.95;13.90;;;;;;;;;;5000221;28;20033;-81
2021/12/08 14:16:34;;;;;;;28.73;14.73;;;;;;;;;;4999692;28;20317;-80
2021/12/08 14:19:00;;;;;;;24.88;14.20;;;;;;;;;;4999220;28;20392;-80
2021/12/08 14:21:34;;;;;;;24.08;13.32;;;;;;;;;;5127424;23;20046;-80
2021/12/08 14:24:04;;;;;;;23.45;12.32;;;;;;;;;;4999403;28;20065;-80
2021/12/08 14:26:31;;;;;;;29.58;13.48;;;;;;;;;;5000513;28;20027;-80
2021/12/08 14:28:59;;;;;;;22.77;11.40;;;;;;;;;;5001396;28;20331;-80
2021/12/08 14:31:30;;;;;;;26.05;11.50;;;;;;;;;;5001271;28;20019;-80
2021/12/08 14:34:07;;;;;;;29.15;14.25;;;;;;;;;;4999998;28;20318;-80
2021/12/08 14:36:35;;;;;;;31.60;16.40;;;;;;;;;;4999460;28;20014;-80
2021/12/08 14:39:03;;;;;;;29.17;14.15;;;;;;;;;;4999872;28;20097;-80
2021/12/08 14:41:31;;;;;;;37.42;17.42;;;;;;;;;;5000083;28;20029;-80
2021/12/08 14:44:05;;;;;;;31.15;15.60;;;;;;;;;;5001710;28;20076;-80
2021/12/08 14:46:32;;;;;;;34.17;13.80;;;;;;;;;;4999506;28;20026;-80
2021/12/08 14:49:04;;;;;;;23.15;15.80;;;;;;;;;;5001153;28;20432;-80
2021/12/08 14:51:31;;;;;;;28.48;13.77;;;;;;;;;;5000477;28;20026;-80
2021/12/08 14:54:09;;;;;;;36.78;17.90;;;;;;;;;;4999839;28;20022;-80
2021/12/08 14:56:36;;;;;;;33.53;17.98;;;;;;;;;;5000211;28;20149;-80
2021/12/08 14:59:03;;;;;;;39.30;19.95;;;;;;;;;;4999519;28;20081;-80
2021/12/08 15:01:29;;;;;;;44.92;20.58;;;;;;;;;;4999034;28;20120;-80
2021/12/08 15:03:56;;;;;;;44.30;20.40;;;;;;;;;;4998725;28;20038;-80
2021/12/08 15:06:23;;;;;;;44.70;23.35;;;;;;;;;;5001190;28;20092;-80
2021/12/08 15:08:50;;;;;;;45.42;24.30;;;;;;;;;;5000710;28;20424;-81
2021/12/08 15:11:21;;;;;;;47.55;23.70;;;;;;;;;;4999067;28;20022;-80
2021/12/08 15:13:48;;;;;;;51.50;27.17;;;;;;;;;;4998108;28;20077;-80
2021/12/08 15:16:21;;;;;;;51.42;26.50;;;;;;;;;;4999467;28;20014;-80
2021/12/08 15:18:51;;;;;;;42.50;23.05;;;;;;;;;;4999866;28;20028;-80
2021/12/08 15:21:23;;;;;;;;;;;;;;;;;;5000358;28;20476;-80
2021/12/08 15:24:00;;;;;;;63.45;32.88;;;;;;;;;;5000072;28;19918;-80
2021/12/08 15:26:27;;;;;;;64.13;34.35;;;;;;;;;;5000442;28;20200;-79
2021/12/08 15:28:53;;;;;;;70.50;37.38;;;;;;;;;;4999860;28;20018;-80
2021/12/08 15:31:26;;;;;;;60.42;31.85;;;;;;;;;;4999942;28;20109;-80
2021/12/08 15:33:52;;;;;;;66.95;32.28;;;;;;;;;;5000254;28;20046;-80
2021/12/08 15:36:23;;;;;;;64.22;31.85;;;;;;;;;;4999891;28;20033;-80
2021/12/08 15:41:26;;;;;;;53.78;29.88;;;;;;;;;;5570552;23;20046;-80
2021/12/08 15:44:05;;;;;;;55.78;27.60;;;;;;;;;;5001567;28;20348;-80
2021/12/08 15:46:32;;;;;;;57.85;27.50;;;;;;;;;;4998496;28;20019;-80
2021/12/08 15:48:58;;;;;;;59.08;28.85;;;;;;;;;;4999002;28;20401;-81
2021/12/08 15:51:30;;;;;;;51.63;27.02;;;;;;;;;;5001430;28;20033;-80
2021/12/08 15:53:58;;;;;;;61.17;29.98;;;;;;;;;;4999157;28;20022;-80
2021/12/08 15:56:24;;;;;;;46.45;26.90;;;;;;;;;;4999180;28;20091;-80
2021/12/08 15:58:52;;;;;;;48.10;27.15;;;;;;;;;;4998864;28;20391;-80
2021/12/08 16:01:19;;;;;;;49.35;28.98;;;;;;;;;;5000398;28;20022;-80
2021/12/08 16:03:47;;;;;;;58.17;27.65;;;;;;;;;;4982137;28;20128;-80
2021/12/08 16:06:17;;;;;;;48.53;28.42;;;;;;;;;;5012136;23;20027;-80
2021/12/08 16:08:44;;;;;;;47.08;30.55;;;;;;;;;;4999425;28;20029;-80
2021/12/08 16:11:24;;;;;;;52.00;29.10;;;;;;;;;;4999652;28;20022;-80
2021/12/08 16:13:50;;;;;;;53.70;25.92;;;;;;;;;;4998224;28;20029;-81
2021/12/08 16:16:28;;;;;;;59.22;29.45;;;;;;;;;;4998533;28;20113;-80
2021/12/08 16:19:06;;;;;;;47.63;28.63;;;;;;;;;;4999181;28;20026;-81
2021/12/08 16:21:32;;;;;;;46.63;26.83;;;;;;;;;;5000217;28;20487;-80
2021/12/08 16:23:58;;;;;;;46.97;25.23;;;;;;;;;;4985514;28;20029;-81
2021/12/08 16:26:24;;;;;;;43.42;23.05;;;;;;;;;;4999693;28;20015;-80
2021/12/08 16:28:50;;;;;;;35.70;22.95;;;;;;;;;;5000702;28;20045;-80
2021/12/08 16:31:16;;;;;;;38.50;21.73;;;;;;;;;;4998278;28;20025;-81
2021/12/08 16:33:42;;;;;;;52.90;23.88;;;;;;;;;;5000390;28;20026;-81
2021/12/08 16:36:08;;;;;;;36.30;20.85;;;;;;;;;;5048059;23;20049;-80
2021/12/08 16:38:35;;;;;;;42.95;24.00;;;;;;;;;;4997758;28;20018;-80
2021/12/08 16:43:46;;;;;;;41.03;23.02;;;;;;;;;;4999718;28;20030;-81
2021/12/08 16:46:12;;;;;;;48.47;25.35;;;;;;;;;;4997494;28;20021;-81
2021/12/08 16:48:38;;;;;;;47.85;26.98;;;;;;;;;;5000495;28;20402;-80
2021/12/08 16:51:04;;;;;;;41.67;23.35;;;;;;;;;;4999779;28;20085;-80